createdAt,value
2023-11-09T00:00:05.293Z,2.42
2023-11-09T00:02:32.589Z,5.85
2023-11-09T00:05:00.523Z,2.30
2023-11-09T00:07:27.937Z,1.92
2023-11-09T00:09:55.414Z,1.95
2023-11-09T00:12:24.460Z,1.85
2023-11-09T00:14:51.983Z,1.75
2023-11-09T00:17:21.474Z,1.52
2023-11-09T00:19:49.022Z,4.70
2023-11-09T00:22:16.662Z,2.35
2023-11-09T00:24:44.298Z,1.45
2023-11-09T00:27:22.344Z,2.30
2023-11-09T00:29:49.815Z,2.85
2023-11-09T00:32:17.687Z,2.95
2023-11-09T00:34:50.044Z,2.35
2023-11-09T00:37:17.546Z,2.58
2023-11-09T00:39:46.507Z,2.13
2023-11-09T00:42:14.101Z,2.03
2023-11-09T00:44:42.642Z,3.78
2023-11-09T00:47:12.620Z,1.38
2023-11-09T00:49:39.935Z,1.35
2023-11-09T00:52:07.446Z,2.72
2023-11-09T00:54:34.984Z,1.60
2023-11-09T00:57:02.417Z,1.60
2023-11-09T00:59:29.855Z,1.90
2023-11-09T01:01:57.286Z,1.13
2023-11-09T01:04:26.447Z,1.02
2023-11-09T01:06:54.647Z,1.20
2023-11-09T01:09:21.930Z,3.35
2023-11-09T01:11:50.256Z,1.23
2023-11-09T01:14:21.538Z,1.48
2023-11-09T01:16:49.800Z,1.17
2023-11-09T01:19:17.277Z,0.98
2023-11-09T01:21:44.783Z,1.67
2023-11-09T01:24:12.357Z,1.75
2023-11-09T01:26:39.858Z,1.58
2023-11-09T01:29:07.959Z,1.27
2023-11-09T01:31:35.902Z,2.05
2023-11-09T01:34:10.185Z,1.42
2023-11-09T01:36:40.515Z,1.02
2023-11-09T01:39:08.174Z,2.20
2023-11-09T01:41:35.609Z,1.23
2023-11-09T01:44:03.404Z,1.15
2023-11-09T01:46:31.287Z,1.38
2023-11-09T01:49:00.521Z,1.67
2023-11-09T01:51:29.532Z,0.75
2023-11-09T01:53:57.084Z,1.85
2023-11-09T01:56:26.332Z,1.83
2023-11-09T01:58:54.175Z,0.82
2023-11-09T02:01:22.837Z,0.90
2023-11-09T02:03:50.433Z,1.20
2023-11-09T02:06:19.780Z,1.67
2023-11-09T02:08:48.872Z,1.38
2023-11-09T02:11:16.576Z,0.68
2023-11-09T02:13:43.934Z,0.82
2023-11-09T02:16:11.312Z,1.38
2023-11-09T02:18:38.714Z,1.13
2023-11-09T02:21:06.451Z,0.50
2023-11-09T02:23:35.203Z,1.02
2023-11-09T02:26:02.889Z,0.90
2023-11-09T02:28:33.532Z,1.10
2023-11-09T02:31:00.961Z,1.27
2023-11-09T02:33:28.501Z,1.55
2023-11-09T02:35:55.969Z,1.40
2023-11-09T02:38:24.056Z,1.23
2023-11-09T02:40:52.085Z,1.08
2023-11-09T02:43:19.786Z,2.78
2023-11-09T02:45:47.285Z,2.80
2023-11-09T02:48:14.809Z,1.10
2023-11-09T02:50:42.186Z,1.40
2023-11-09T02:53:09.898Z,1.85
2023-11-09T02:55:37.807Z,1.17
2023-11-09T02:58:07.297Z,1.60
2023-11-09T03:00:37.533Z,1.10
2023-11-09T03:03:05.846Z,0.80
2023-11-09T03:05:33.461Z,0.88
2023-11-09T03:08:00.887Z,0.60
2023-11-09T03:10:28.310Z,0.75
2023-11-09T03:12:56.576Z,2.85
2023-11-09T03:15:23.943Z,1.95
2023-11-09T03:17:51.494Z,1.65
2023-11-09T03:20:19.225Z,0.82
2023-11-09T03:22:46.896Z,1.00
2023-11-09T03:25:15.037Z,0.88
2023-11-09T03:27:42.529Z,1.48
2023-11-09T03:30:12.162Z,1.65
2023-11-09T03:32:39.665Z,1.15
2023-11-09T03:35:08.209Z,0.93
2023-11-09T03:37:36.992Z,1.15
2023-11-09T03:40:07.544Z,1.25
2023-11-09T03:42:35.045Z,0.85
2023-11-09T03:45:02.825Z,1.17
2023-11-09T03:47:30.298Z,0.52
2023-11-09T03:49:57.916Z,0.55
2023-11-09T03:52:28.666Z,0.85
2023-11-09T03:54:56.756Z,1.13
2023-11-09T03:57:24.408Z,0.80
2023-11-09T03:59:51.911Z,0.63
2023-11-09T04:02:19.434Z,1.65
2023-11-09T04:04:48.165Z,1.17
2023-11-09T04:07:15.775Z,0.55
2023-11-09T04:09:43.486Z,0.50
2023-11-09T04:12:11.052Z,2.28
2023-11-09T04:14:38.308Z,1.83
2023-11-09T04:17:05.781Z,0.80
2023-11-09T04:19:33.340Z,0.85
2023-11-09T04:22:00.622Z,1.15
2023-11-09T04:24:27.972Z,1.02
2023-11-09T04:26:57.815Z,0.98
2023-11-09T04:29:25.763Z,1.45
2023-11-09T04:31:53.087Z,0.70
2023-11-09T04:34:21.166Z,0.90
2023-11-09T04:36:51.540Z,2.20
2023-11-09T04:39:29.674Z,2.33
2023-11-09T04:42:01.560Z,1.13
2023-11-09T04:44:30.349Z,2.10
2023-11-09T04:46:59.470Z,0.82
2023-11-09T04:49:29.005Z,1.30
2023-11-09T04:52:04.304Z,0.80
2023-11-09T04:54:46.130Z,0.90
2023-11-09T04:57:34.003Z,1.67
2023-11-09T05:00:01.576Z,0.85
2023-11-09T05:05:58.391Z,1.10
2023-11-09T05:08:25.747Z,1.42
2023-11-09T05:10:54.394Z,0.60
2023-11-09T05:13:21.849Z,0.82
2023-11-09T05:15:50.079Z,2.38
2023-11-09T05:18:18.069Z,1.10
2023-11-09T05:20:45.442Z,1.92
2023-11-09T05:23:12.680Z,0.88
2023-11-09T05:25:42.896Z,2.75
2023-11-09T05:28:10.303Z,1.67
2023-11-09T05:30:37.736Z,3.33
2023-11-09T05:33:05.766Z,4.55
2023-11-09T05:35:33.453Z,6.25
2023-11-09T05:38:00.922Z,7.32
2023-11-09T05:40:28.674Z,4.07
2023-11-09T05:42:56.442Z,4.75
2023-11-09T05:45:23.917Z,4.10
2023-11-09T05:47:52.485Z,5.45
2023-11-09T05:50:20.217Z,3.20
2023-11-09T05:52:47.790Z,4.65
2023-11-09T05:55:15.410Z,5.30
2023-11-09T05:57:42.852Z,9.02
2023-11-09T06:00:12.286Z,6.50
2023-11-09T06:02:39.555Z,5.53
2023-11-09T06:05:07.212Z,6.10
2023-11-09T06:07:35.703Z,6.20
2023-11-09T06:10:04.752Z,5.00
2023-11-09T06:12:32.067Z,7.53
2023-11-09T06:14:59.408Z,2.95
2023-11-09T06:17:26.734Z,6.15
2023-11-09T06:19:54.344Z,4.82
2023-11-09T06:22:21.579Z,6.97
2023-11-09T06:24:49.238Z,5.13
2023-11-09T06:27:19.138Z,7.78
2023-11-09T06:29:47.675Z,6.18
2023-11-09T06:32:15.050Z,3.17
2023-11-09T06:34:43.583Z,7.43
2023-11-09T06:37:11.173Z,3.28
2023-11-09T06:39:38.868Z,2.33
2023-11-09T06:42:12.223Z,3.10
2023-11-09T06:44:40.697Z,4.82
2023-11-09T06:47:08.103Z,6.47
2023-11-09T06:49:35.518Z,5.70
2023-11-09T06:52:03.403Z,5.45
2023-11-09T06:54:31.148Z,8.25
2023-11-09T06:56:58.612Z,7.18
2023-11-09T06:59:26.147Z,6.68
2023-11-09T07:01:54.687Z,10.80
2023-11-09T07:04:25.023Z,13.45
2023-11-09T07:06:52.470Z,16.33
2023-11-09T07:09:20.216Z,10.25
2023-11-09T07:11:49.679Z,12.35
2023-11-09T07:14:17.044Z,13.40
2023-11-09T07:16:44.965Z,13.73
2023-11-09T07:19:13.425Z,11.20
2023-11-09T07:21:41.040Z,8.85
2023-11-09T07:24:09.472Z,8.80
2023-11-09T07:26:36.697Z,8.93
2023-11-09T07:29:04.608Z,13.48
2023-11-09T07:31:31.993Z,9.73
2023-11-09T07:33:59.257Z,7.35
2023-11-09T07:36:26.585Z,10.10
2023-11-09T07:38:56.557Z,9.20
2023-11-09T07:41:28.307Z,10.38
2023-11-09T07:43:56.446Z,14.57
2023-11-09T07:46:23.944Z,6.50
2023-11-09T07:48:51.463Z,5.90
2023-11-09T07:51:24.955Z,8.15
2023-11-09T07:53:53.015Z,8.93
2023-11-09T07:56:20.426Z,4.03
2023-11-09T07:58:48.168Z,7.28
2023-11-09T08:01:15.727Z,8.25
2023-11-09T08:03:43.363Z,7.40
2023-11-09T08:06:10.761Z,8.15
2023-11-09T08:08:39.288Z,7.93
2023-11-09T08:11:06.554Z,4.38
2023-11-09T08:13:34.688Z,5.57
2023-11-09T08:16:02.082Z,3.42
2023-11-09T08:18:29.595Z,5.03
2023-11-09T08:20:57.430Z,6.47
2023-11-09T08:23:25.192Z,5.00
2023-11-09T08:25:54.575Z,3.40
2023-11-09T08:28:22.119Z,6.22
2023-11-09T08:30:51.561Z,7.07
2023-11-09T08:33:23.547Z,5.80
2023-11-09T08:35:55.048Z,5.15
2023-11-09T08:38:23.520Z,3.67
2023-11-09T08:40:52.614Z,3.70
2023-11-09T08:43:20.164Z,3.10
2023-11-09T08:45:48.112Z,3.58
2023-11-09T08:48:15.415Z,3.65
2023-11-09T08:50:43.579Z,4.28
2023-11-09T08:53:10.954Z,3.83
2023-11-09T08:55:41.611Z,5.22
2023-11-09T08:58:08.892Z,9.43
2023-11-09T09:00:36.265Z,7.68
2023-11-09T09:03:03.572Z,8.30
2023-11-09T09:05:32.508Z,7.40
2023-11-09T09:08:03.183Z,7.93
2023-11-09T09:10:32.771Z,6.88
2023-11-09T09:13:03.876Z,4.97
2023-11-09T09:15:31.325Z,6.25
2023-11-09T09:18:00.393Z,3.38
2023-11-09T09:20:29.676Z,4.20
2023-11-09T09:23:01.241Z,4.90
2023-11-09T09:25:31.997Z,4.75
2023-11-09T09:28:00.568Z,4.32
2023-11-09T09:30:28.467Z,3.97
2023-11-09T09:33:00.935Z,4.63
2023-11-09T09:35:38.694Z,3.63
2023-11-09T09:38:13.213Z,5.18
2023-11-09T09:40:47.966Z,3.22
2023-11-09T09:43:21.266Z,3.92
2023-11-09T09:45:58.479Z,5.13
2023-11-09T09:48:29.169Z,6.50
2023-11-09T09:51:00.116Z,5.75
2023-11-09T09:53:28.658Z,7.63
2023-11-09T09:55:57.992Z,2.92
2023-11-09T09:58:25.430Z,2.30
2023-11-09T10:00:58.513Z,4.57
2023-11-09T10:03:29.645Z,1.85
2023-11-09T10:05:57.340Z,5.72
2023-11-09T10:08:25.511Z,2.10
2023-11-09T10:10:55.484Z,3.95
2023-11-09T10:13:25.929Z,2.30
2023-11-09T10:15:58.900Z,2.47
2023-11-09T10:18:31.626Z,3.72
2023-11-09T10:21:02.711Z,4.63
2023-11-09T10:23:30.284Z,1.73
2023-11-09T10:25:58.821Z,1.80
2023-11-09T10:28:35.457Z,2.58
2023-11-09T10:31:03.067Z,1.38
2023-11-09T10:33:35.249Z,4.25
2023-11-09T10:36:06.437Z,2.35
2023-11-09T10:38:34.932Z,1.60
2023-11-09T10:41:15.613Z,3.58
2023-11-09T10:43:51.906Z,2.55
2023-11-09T10:46:21.248Z,2.08
2023-11-09T10:48:52.163Z,1.00
2023-11-09T10:51:22.348Z,5.25
2023-11-09T10:53:50.791Z,1.75
2023-11-09T10:56:18.709Z,1.90
2023-11-09T10:58:47.357Z,1.52
2023-11-09T11:01:27.758Z,2.20
2023-11-09T11:03:59.217Z,3.88
2023-11-09T11:06:44.196Z,3.22
2023-11-09T11:09:20.210Z,2.28
2023-11-09T11:11:50.972Z,0.80
2023-11-09T11:14:24.594Z,2.05
2023-11-09T11:17:12.730Z,1.30
2023-11-09T11:20:01.260Z,1.90
2023-11-09T11:23:17.109Z,3.65
2023-11-09T11:26:12.131Z,1.27
2023-11-09T11:28:44.305Z,3.13
2023-11-09T11:31:14.860Z,1.20
2023-11-09T11:33:42.904Z,5.05
2023-11-09T11:36:28.172Z,3.97
2023-11-09T11:41:52.755Z,5.18
2023-11-09T11:44:26.643Z,8.20
2023-11-09T11:46:59.586Z,6.43
2023-11-09T11:49:27.723Z,8.75
2023-11-09T11:51:59.277Z,8.10
2023-11-09T11:54:29.732Z,7.57
2023-11-09T11:56:57.386Z,12.20
2023-11-09T11:59:24.662Z,12.85
2023-11-09T12:01:52.505Z,11.98
2023-11-09T12:04:20.151Z,10.25
2023-11-09T12:06:50.195Z,13.85
2023-11-09T12:09:20.050Z,14.73
2023-11-09T12:11:51.758Z,14.70
2023-11-09T12:14:21.207Z,12.30
2023-11-09T12:16:50.205Z,14.18
2023-11-09T12:19:19.859Z,13.88
2023-11-09T12:21:48.370Z,15.10
2023-11-09T12:24:24.852Z,14.32
2023-11-09T12:27:12.392Z,13.23
2023-11-09T12:29:43.575Z,13.23
2023-11-09T12:32:13.433Z,12.95
2023-11-09T12:34:44.593Z,12.18
2023-11-09T12:37:15.866Z,10.85
2023-11-09T12:39:44.844Z,11.10
2023-11-09T12:42:24.321Z,10.75
2023-11-09T12:44:54.562Z,13.77
2023-11-09T12:47:23.028Z,13.90
2023-11-09T12:49:55.042Z,10.45
2023-11-09T12:52:28.262Z,7.43
2023-11-09T12:54:57.546Z,12.40
2023-11-09T12:57:26.329Z,7.30
2023-11-09T12:59:57.721Z,8.95
2023-11-09T13:02:41.683Z,9.48
2023-11-09T13:05:11.184Z,7.60
2023-11-09T13:07:38.403Z,7.28
2023-11-09T13:10:23.275Z,7.53
2023-11-09T13:12:55.862Z,9.57
2023-11-09T13:15:43.113Z,8.73
2023-11-09T13:18:14.071Z,7.93
2023-11-09T13:20:42.485Z,6.50
2023-11-09T13:23:12.647Z,4.70
2023-11-09T13:25:50.950Z,6.47
2023-11-09T13:28:19.385Z,4.32
2023-11-09T13:30:55.642Z,6.85
2023-11-09T13:33:31.539Z,5.78
2023-11-09T13:36:11.607Z,7.38
2023-11-09T13:39:13.258Z,7.10
2023-11-09T13:41:44.091Z,5.45
2023-11-09T13:44:17.815Z,8.65
2023-11-09T13:46:45.540Z,10.82
2023-11-09T13:49:18.129Z,7.00
2023-11-09T13:52:03.516Z,4.97
2023-11-09T13:57:14.990Z,5.10
2023-11-09T13:59:55.812Z,5.72
2023-11-09T14:02:31.592Z,10.75
2023-11-09T14:05:09.105Z,8.55
2023-11-09T14:07:43.379Z,4.75
2023-11-09T14:10:16.157Z,5.18
2023-11-09T14:12:44.969Z,6.63
2023-11-09T14:15:24.807Z,8.07
2023-11-09T14:18:24.290Z,12.40
2023-11-09T14:20:55.106Z,4.88
2023-11-09T14:23:25.819Z,8.40
2023-11-09T14:25:55.393Z,4.63
2023-11-09T14:28:23.343Z,3.35
2023-11-09T14:30:52.225Z,5.57
2023-11-09T14:33:27.451Z,7.70
2023-11-09T14:35:59.948Z,8.93
2023-11-09T14:38:28.933Z,3.55
2023-11-09T14:40:59.115Z,4.82
2023-11-09T14:43:27.603Z,5.88
2023-11-09T14:45:55.230Z,6.25
2023-11-09T14:48:26.287Z,10.65
2023-11-09T14:50:57.460Z,4.32
2023-11-09T14:53:33.874Z,4.30
2023-11-09T14:56:07.894Z,5.03
2023-11-09T14:58:35.765Z,4.47
2023-11-09T15:01:05.590Z,8.20
2023-11-09T15:03:35.389Z,11.27
2023-11-09T15:06:14.718Z,7.18
2023-11-09T15:08:42.443Z,4.57
2023-11-09T15:11:16.046Z,5.28
2023-11-09T15:13:48.699Z,6.22
2023-11-09T15:16:21.051Z,2.78
2023-11-09T15:18:52.395Z,4.50
2023-11-09T15:21:22.812Z,5.90
2023-11-09T15:23:50.472Z,4.07
2023-11-09T15:26:18.762Z,18.95
2023-11-09T15:28:46.113Z,2.25
2023-11-09T15:31:14.258Z,6.65
2023-11-09T15:33:41.916Z,4.65
2023-11-09T15:36:09.353Z,4.38
2023-11-09T15:38:38.803Z,7.82
2023-11-09T15:41:18.647Z,2.80
2023-11-09T15:43:51.396Z,2.08
2023-11-09T15:46:18.704Z,5.57
2023-11-09T15:48:47.604Z,3.38
2023-11-09T15:51:17.857Z,3.42
2023-11-09T15:53:45.375Z,5.65
2023-11-09T15:56:17.091Z,2.72
2023-11-09T15:58:49.886Z,4.93
2023-11-09T16:01:18.591Z,3.50
2023-11-09T16:03:46.719Z,2.92
2023-11-09T16:06:14.654Z,2.03
2023-11-09T16:08:42.401Z,4.78
2023-11-09T16:11:10.920Z,2.10
2023-11-09T16:13:39.474Z,3.78
2023-11-09T16:16:07.277Z,3.97
2023-11-09T16:18:35.253Z,4.53
2023-11-09T16:21:03.052Z,5.55
2023-11-09T16:23:32.957Z,2.13
2023-11-09T16:26:01.427Z,3.00
2023-11-09T16:28:32.662Z,3.53
2023-11-09T16:31:07.814Z,2.47
2023-11-09T16:33:35.909Z,1.15
2023-11-09T16:36:03.329Z,4.10
2023-11-09T16:38:30.766Z,4.57
2023-11-09T16:40:58.229Z,1.77
2023-11-09T16:43:26.000Z,1.85
2023-11-09T16:45:56.811Z,1.00
2023-11-09T16:48:25.113Z,2.15
2023-11-09T16:50:52.498Z,4.85
2023-11-09T16:53:20.715Z,5.30
2023-11-09T16:55:48.336Z,2.28
2023-11-09T16:58:16.078Z,4.15
2023-11-09T17:00:45.116Z,4.68
2023-11-09T17:03:12.610Z,6.03
2023-11-09T17:05:41.066Z,8.15
2023-11-09T17:08:10.491Z,5.90
2023-11-09T17:10:40.714Z,7.47
2023-11-09T17:13:11.932Z,6.07
2023-11-09T17:15:39.583Z,10.32
2023-11-09T17:18:12.792Z,7.00
2023-11-09T17:20:40.317Z,10.88
2023-11-09T17:23:08.206Z,5.20
2023-11-09T17:25:36.049Z,8.85
2023-11-09T17:28:04.219Z,6.13
2023-11-09T17:30:32.247Z,7.57
2023-11-09T17:33:01.554Z,4.15
2023-11-09T17:35:29.858Z,10.35
2023-11-09T17:37:57.378Z,10.38
2023-11-09T17:40:24.849Z,12.40
2023-11-09T17:42:52.335Z,2.55
2023-11-09T17:45:19.797Z,4.30
2023-11-09T17:47:48.417Z,3.63
2023-11-09T17:50:18.381Z,3.78
2023-11-09T17:52:48.628Z,2.67
2023-11-09T17:55:16.816Z,6.95
2023-11-09T17:57:48.773Z,5.78
2023-11-09T18:00:17.563Z,3.13
2023-11-09T18:02:46.729Z,2.72
2023-11-09T18:05:15.487Z,2.65
2023-11-09T18:07:43.032Z,3.00
2023-11-09T18:10:12.862Z,2.58
2023-11-09T18:12:43.224Z,2.35
2023-11-09T18:15:12.358Z,2.88
2023-11-09T18:17:39.903Z,1.75
2023-11-09T18:20:10.444Z,5.07
2023-11-09T18:22:40.740Z,1.60
2023-11-09T18:25:10.741Z,4.28
2023-11-09T18:27:40.550Z,2.67
2023-11-09T18:30:10.675Z,2.47
2023-11-09T18:32:38.402Z,5.05
2023-11-09T18:35:08.164Z,6.07
2023-11-09T18:37:35.998Z,2.40
2023-11-09T18:40:05.459Z,6.93
2023-11-09T18:42:32.823Z,8.60
2023-11-09T18:45:00.399Z,5.18
2023-11-09T18:47:29.386Z,3.08
2023-11-09T18:52:30.270Z,4.95
2023-11-09T18:54:58.009Z,3.55
2023-11-09T18:57:26.279Z,3.05
2023-11-09T18:59:53.944Z,5.72
2023-11-09T19:02:21.923Z,7.63
2023-11-09T19:04:52.680Z,15.13
2023-11-09T19:07:20.515Z,9.25
2023-11-09T19:09:50.218Z,16.23
2023-11-09T19:12:18.689Z,11.43
2023-11-09T19:14:46.469Z,7.90
2023-11-09T19:17:13.763Z,6.88
2023-11-09T19:19:41.119Z,10.93
2023-11-09T19:24:38.991Z,6.22
2023-11-09T19:27:07.506Z,8.10
2023-11-09T19:29:35.153Z,4.80
2023-11-09T19:32:05.964Z,4.07
2023-11-09T19:34:34.569Z,6.38
2023-11-09T19:37:02.952Z,8.18
2023-11-09T19:39:30.640Z,4.47
2023-11-09T19:41:58.762Z,6.13
2023-11-09T19:44:26.566Z,13.40
2023-11-09T19:46:54.446Z,6.75
2023-11-09T19:49:21.982Z,12.13
2023-11-09T19:51:49.589Z,13.25
2023-11-09T19:54:17.695Z,11.68
2023-11-09T19:56:45.056Z,9.38
2023-11-09T19:59:12.653Z,10.88
2023-11-09T20:01:41.124Z,7.38
2023-11-09T20:04:09.091Z,11.63
2023-11-09T20:06:36.561Z,5.85
2023-11-09T20:09:05.806Z,10.05
2023-11-09T20:11:33.564Z,18.27
2023-11-09T20:14:02.120Z,9.75
2023-11-09T20:16:31.054Z,8.98
2023-11-09T20:18:58.791Z,9.48
2023-11-09T20:21:26.410Z,6.65
2023-11-09T20:23:53.693Z,6.13
2023-11-09T20:26:21.556Z,6.72
2023-11-09T20:28:51.619Z,10.63
2023-11-09T20:31:19.550Z,7.97
2023-11-09T20:33:47.923Z,13.23
2023-11-09T20:36:15.655Z,6.03
2023-11-09T20:38:43.149Z,8.70
2023-11-09T20:41:10.417Z,11.15
2023-11-09T20:43:40.192Z,12.75
2023-11-09T20:46:10.763Z,5.93
2023-11-09T20:48:38.121Z,9.52
2023-11-09T20:51:09.253Z,4.25
2023-11-09T20:53:37.077Z,7.57
2023-11-09T20:56:05.988Z,12.27
2023-11-09T20:58:33.325Z,11.63
2023-11-09T21:01:01.021Z,5.40
2023-11-09T21:03:34.078Z,11.88
2023-11-09T21:06:02.240Z,5.63
2023-11-09T21:08:29.658Z,8.02
2023-11-09T21:10:57.224Z,4.38
2023-11-09T21:13:24.992Z,6.72
2023-11-09T21:15:53.046Z,2.42
2023-11-09T21:18:21.586Z,8.07
2023-11-09T21:20:49.304Z,5.47
2023-11-09T21:23:17.692Z,6.03
2023-11-09T21:25:48.506Z,5.38
2023-11-09T21:28:16.358Z,10.13
2023-11-09T21:30:43.901Z,8.73
2023-11-09T21:33:11.519Z,12.55
2023-11-09T21:35:38.886Z,12.45
2023-11-09T21:38:06.380Z,9.10
2023-11-09T21:40:34.104Z,7.30
2023-11-09T21:43:01.571Z,7.20
2023-11-09T21:45:30.960Z,12.68
2023-11-09T21:47:58.613Z,5.80
2023-11-09T21:50:26.100Z,5.35
2023-11-09T21:52:53.563Z,6.90
2023-11-09T21:55:23.744Z,7.88
2023-11-09T21:57:53.273Z,5.47
2023-11-09T22:00:21.003Z,4.93
2023-11-09T22:02:49.088Z,3.60
2023-11-09T22:05:17.789Z,3.50
2023-11-09T22:07:45.777Z,3.53
2023-11-09T22:10:14.100Z,7.72
2023-11-09T22:12:41.955Z,3.55
2023-11-09T22:15:15.801Z,4.13
2023-11-09T22:17:43.952Z,5.37
2023-11-09T22:20:13.060Z,3.58
2023-11-09T22:22:40.909Z,5.65
2023-11-09T22:25:08.797Z,2.42
2023-11-09T22:27:36.296Z,4.13
2023-11-09T22:30:04.264Z,3.85
2023-11-09T22:32:31.668Z,2.92
2023-11-09T22:34:59.119Z,3.13
2023-11-09T22:37:26.675Z,2.60
2023-11-09T22:39:54.106Z,3.97
2023-11-09T22:42:21.598Z,4.13
2023-11-09T22:44:49.150Z,3.72
2023-11-09T22:47:16.636Z,8.60
2023-11-09T22:49:44.244Z,4.22
2023-11-09T22:52:11.582Z,3.72
2023-11-09T22:54:39.300Z,4.18
2023-11-09T22:57:07.543Z,3.53
2023-11-09T22:59:35.029Z,2.65
2023-11-09T23:02:02.534Z,3.78
2023-11-09T23:04:31.890Z,3.40
2023-11-09T23:06:59.577Z,3.72
2023-11-09T23:09:27.749Z,3.83
2023-11-09T23:11:55.122Z,2.75
2023-11-09T23:14:22.453Z,3.53
2023-11-09T23:16:49.997Z,2.13
2023-11-09T23:19:17.277Z,3.05
2023-11-09T23:21:45.005Z,2.63
2023-11-09T23:24:12.568Z,2.78
2023-11-09T23:26:40.313Z,3.08
2023-11-09T23:29:07.620Z,1.90
2023-11-09T23:31:35.102Z,3.88
2023-11-09T23:34:04.687Z,2.50
2023-11-09T23:36:32.273Z,2.53
2023-11-09T23:38:59.963Z,5.13
2023-11-09T23:41:27.459Z,2.92
2023-11-09T23:43:55.038Z,6.63
2023-11-09T23:46:22.730Z,3.58
2023-11-09T23:48:50.301Z,2.50
2023-11-09T23:51:24.164Z,3.20
2023-11-09T23:53:51.772Z,2.30
2023-11-09T23:56:19.245Z,4.20
2023-11-09T23:58:47.196Z,2.70
